sensor_id;sensor_type;location;lat;lon;timestamp;P1;durP1;ratioP1;P2;durP2;ratioP2
68858;SDS011;55864;49.238;8.092;2024-01-27T00:00:39;12.20;;;2.23;;
68858;SDS011;55864;49.238;8.092;2024-01-27T00:02:40;10.10;;;2.47;;
68858;SDS011;55864;49.238;8.092;2024-01-27T00:04:40;10.63;;;2.03;;
68858;SDS011;55864;49.238;8.092;2024-01-27T00:06:41;11.30;;;2.73;;
68858;SDS011;55864;49.238;8.092;2024-01-27T00:08:41;11.80;;;3.03;;
68858;SDS011;55864;49.238;8.092;2024-01-27T00:10:43;9.63;;;2.90;;
68858;SDS011;55864;49.238;8.092;2024-01-27T00:12:44;13.27;;;2.50;;
68858;SDS011;55864;49.238;8.092;2024-01-27T00:14:44;10.83;;;2.80;;
68858;SDS011;55864;49.238;8.092;2024-01-27T00:16:45;10.63;;;2.60;;
68858;SDS011;55864;49.238;8.092;2024-01-27T00:18:45;9.77;;;2.10;;
68858;SDS011;55864;49.238;8.092;2024-01-27T00:20:46;8.10;;;2.23;;
68858;SDS011;55864;49.238;8.092;2024-01-27T00:22:46;8.90;;;2.50;;
68858;SDS011;55864;49.238;8.092;2024-01-27T00:24:47;9.90;;;1.97;;
68858;SDS011;55864;49.238;8.092;2024-01-27T00:26:49;7.80;;;2.17;;
68858;SDS011;55864;49.238;8.092;2024-01-27T00:28:49;11.10;;;2.20;;
68858;SDS011;55864;49.238;8.092;2024-01-27T00:30:50;9.30;;;1.70;;
68858;SDS011;55864;49.238;8.092;2024-01-27T00:32:50;9.27;;;1.80;;
68858;SDS011;55864;49.238;8.092;2024-01-27T00:34:51;7.83;;;1.87;;
68858;SDS011;55864;49.238;8.092;2024-01-27T00:36:51;12.30;;;2.23;;
68858;SDS011;55864;49.238;8.092;2024-01-27T00:38:52;10.40;;;2.20;;
68858;SDS011;55864;49.238;8.092;2024-01-27T00:40:52;8.90;;;1.67;;
68858;SDS011;55864;49.238;8.092;2024-01-27T00:42:54;10.63;;;2.20;;
68858;SDS011;55864;49.238;8.092;2024-01-27T00:44:55;8.80;;;1.70;;
68858;SDS011;55864;49.238;8.092;2024-01-27T00:46:55;8.07;;;1.63;;
68858;SDS011;55864;49.238;8.092;2024-01-27T00:48:56;9.13;;;1.77;;
68858;SDS011;55864;49.238;8.092;2024-01-27T00:50:56;9.37;;;2.17;;
68858;SDS011;55864;49.238;8.092;2024-01-27T00:52:57;9.07;;;1.60;;
68858;SDS011;55864;49.238;8.092;2024-01-27T00:54:57;7.23;;;1.70;;
68858;SDS011;55864;49.238;8.092;2024-01-27T00:56:58;8.10;;;1.70;;
68858;SDS011;55864;49.238;8.092;2024-01-27T00:59:00;8.27;;;1.80;;
68858;SDS011;55864;49.238;8.092;2024-01-27T01:01:00;10.97;;;1.97;;
68858;SDS011;55864;49.238;8.092;2024-01-27T01:03:01;6.40;;;1.87;;
68858;SDS011;55864;49.238;8.092;2024-01-27T01:05:01;7.67;;;2.00;;
68858;SDS011;55864;49.238;8.092;2024-01-27T01:07:02;7.30;;;1.60;;
68858;SDS011;55864;49.238;8.092;2024-01-27T01:09:03;7.73;;;1.67;;
68858;SDS011;55864;49.238;8.092;2024-01-27T01:11:04;7.73;;;1.87;;
68858;SDS011;55864;49.238;8.092;2024-01-27T01:13:04;7.53;;;1.60;;
68858;SDS011;55864;49.238;8.092;2024-01-27T01:15:07;8.47;;;1.67;;
68858;SDS011;55864;49.238;8.092;2024-01-27T01:19:08;8.30;;;1.80;;
68858;SDS011;55864;49.238;8.092;2024-01-27T01:21:09;6.93;;;1.73;;
68858;SDS011;55864;49.238;8.092;2024-01-27T01:23:09;8.47;;;1.50;;
68858;SDS011;55864;49.238;8.092;2024-01-27T01:25:10;12.07;;;1.80;;
68858;SDS011;55864;49.238;8.092;2024-01-27T01:27:10;7.07;;;1.63;;
68858;SDS011;55864;49.238;8.092;2024-01-27T01:29:11;10.03;;;1.63;;
68858;SDS011;55864;49.238;8.092;2024-01-27T01:31:13;9.73;;;1.60;;
68858;SDS011;55864;49.238;8.092;2024-01-27T01:33:13;7.43;;;1.67;;
68858;SDS011;55864;49.238;8.092;2024-01-27T01:35:14;10.87;;;1.87;;
68858;SDS011;55864;49.238;8.092;2024-01-27T01:37:15;8.17;;;1.63;;
68858;SDS011;55864;49.238;8.092;2024-01-27T01:39:15;6.83;;;1.60;;
68858;SDS011;55864;49.238;8.092;2024-01-27T01:41:16;6.97;;;2.10;;
68858;SDS011;55864;49.238;8.092;2024-01-27T01:43:16;8.63;;;1.60;;
68858;SDS011;55864;49.238;8.092;2024-01-27T01:45:17;8.53;;;1.70;;
68858;SDS011;55864;49.238;8.092;2024-01-27T01:47:19;7.57;;;1.50;;
68858;SDS011;55864;49.238;8.092;2024-01-27T01:49:19;6.37;;;1.70;;
68858;SDS011;55864;49.238;8.092;2024-01-27T01:51:20;7.70;;;1.73;;
68858;SDS011;55864;49.238;8.092;2024-01-27T01:53:21;9.20;;;1.87;;
68858;SDS011;55864;49.238;8.092;2024-01-27T01:55:22;6.73;;;1.80;;
68858;SDS011;55864;49.238;8.092;2024-01-27T01:57:23;9.87;;;1.80;;
68858;SDS011;55864;49.238;8.092;2024-01-27T01:59:24;6.63;;;1.60;;
68858;SDS011;55864;49.238;8.092;2024-01-27T02:01:24;9.63;;;1.63;;
68858;SDS011;55864;49.238;8.092;2024-01-27T02:03:26;7.50;;;1.47;;
68858;SDS011;55864;49.238;8.092;2024-01-27T02:05:27;8.17;;;1.80;;
68858;SDS011;55864;49.238;8.092;2024-01-27T02:07:27;8.03;;;1.80;;
68858;SDS011;55864;49.238;8.092;2024-01-27T02:09:28;7.57;;;1.63;;
68858;SDS011;55864;49.238;8.092;2024-01-27T02:11:28;9.33;;;2.30;;
68858;SDS011;55864;49.238;8.092;2024-01-27T02:13:29;10.20;;;1.90;;
68858;SDS011;55864;49.238;8.092;2024-01-27T02:15:29;8.43;;;1.67;;
68858;SDS011;55864;49.238;8.092;2024-01-27T02:17:30;7.30;;;1.60;;
68858;SDS011;55864;49.238;8.092;2024-01-27T02:19:32;7.70;;;1.73;;
68858;SDS011;55864;49.238;8.092;2024-01-27T02:21:32;10.90;;;1.70;;
68858;SDS011;55864;49.238;8.092;2024-01-27T02:23:33;11.03;;;1.60;;
68858;SDS011;55864;49.238;8.092;2024-01-27T02:25:35;11.60;;;1.70;;
68858;SDS011;55864;49.238;8.092;2024-01-27T02:27:35;7.23;;;1.63;;
68858;SDS011;55864;49.238;8.092;2024-01-27T02:29:36;8.87;;;1.70;;
68858;SDS011;55864;49.238;8.092;2024-01-27T02:31:36;6.70;;;1.60;;
68858;SDS011;55864;49.238;8.092;2024-01-27T02:33:37;11.70;;;2.20;;
68858;SDS011;55864;49.238;8.092;2024-01-27T02:35:38;6.87;;;2.40;;
68858;SDS011;55864;49.238;8.092;2024-01-27T02:37:38;6.73;;;1.70;;
68858;SDS011;55864;49.238;8.092;2024-01-27T02:39:39;9.33;;;1.80;;
68858;SDS011;55864;49.238;8.092;2024-01-27T02:41:40;7.43;;;1.40;;
68858;SDS011;55864;49.238;8.092;2024-01-27T02:43:41;6.40;;;1.67;;
68858;SDS011;55864;49.238;8.092;2024-01-27T02:45:41;8.50;;;1.87;;
68858;SDS011;55864;49.238;8.092;2024-01-27T02:47:42;9.70;;;1.87;;
68858;SDS011;55864;49.238;8.092;2024-01-27T02:49:42;5.63;;;1.40;;
68858;SDS011;55864;49.238;8.092;2024-01-27T02:51:43;6.27;;;1.40;;
68858;SDS011;55864;49.238;8.092;2024-01-27T02:53:44;8.83;;;1.90;;
68858;SDS011;55864;49.238;8.092;2024-01-27T02:55:44;10.77;;;2.47;;
68858;SDS011;55864;49.238;8.092;2024-01-27T02:57:46;12.40;;;2.33;;
68858;SDS011;55864;49.238;8.092;2024-01-27T02:59:47;9.87;;;2.00;;
68858;SDS011;55864;49.238;8.092;2024-01-27T03:01:47;10.33;;;2.23;;
68858;SDS011;55864;49.238;8.092;2024-01-27T03:03:48;10.43;;;2.20;;
68858;SDS011;55864;49.238;8.092;2024-01-27T03:05:48;9.40;;;1.77;;
68858;SDS011;55864;49.238;8.092;2024-01-27T03:07:49;6.77;;;1.70;;
68858;SDS011;55864;49.238;8.092;2024-01-27T03:09:49;12.27;;;2.00;;
68858;SDS011;55864;49.238;8.092;2024-01-27T03:11:50;11.67;;;2.20;;
68858;SDS011;55864;49.238;8.092;2024-01-27T03:13:52;7.67;;;1.87;;
68858;SDS011;55864;49.238;8.092;2024-01-27T03:15:52;8.07;;;1.60;;
68858;SDS011;55864;49.238;8.092;2024-01-27T03:17:53;7.30;;;1.57;;
68858;SDS011;55864;49.238;8.092;2024-01-27T03:19:53;6.10;;;1.50;;
68858;SDS011;55864;49.238;8.092;2024-01-27T03:21:54;8.23;;;1.90;;
68858;SDS011;55864;49.238;8.092;2024-01-27T03:23:55;5.80;;;1.67;;
68858;SDS011;55864;49.238;8.092;2024-01-27T03:25:55;8.40;;;1.50;;
68858;SDS011;55864;49.238;8.092;2024-01-27T03:27:56;9.87;;;1.93;;
68858;SDS011;55864;49.238;8.092;2024-01-27T03:29:59;8.60;;;1.57;;
68858;SDS011;55864;49.238;8.092;2024-01-27T03:32:00;8.00;;;2.03;;
68858;SDS011;55864;49.238;8.092;2024-01-27T03:34:01;8.83;;;1.83;;
68858;SDS011;55864;49.238;8.092;2024-01-27T03:36:02;8.13;;;1.50;;
68858;SDS011;55864;49.238;8.092;2024-01-27T03:38:03;6.00;;;1.50;;
68858;SDS011;55864;49.238;8.092;2024-01-27T03:40:04;7.87;;;1.90;;
68858;SDS011;55864;49.238;8.092;2024-01-27T03:42:05;10.23;;;1.80;;
68858;SDS011;55864;49.238;8.092;2024-01-27T03:44:06;8.93;;;1.60;;
68858;SDS011;55864;49.238;8.092;2024-01-27T03:46:08;7.07;;;1.80;;
68858;SDS011;55864;49.238;8.092;2024-01-27T03:48:08;7.10;;;1.77;;
68858;SDS011;55864;49.238;8.092;2024-01-27T03:50:09;9.57;;;1.80;;
68858;SDS011;55864;49.238;8.092;2024-01-27T03:52:10;15.03;;;2.20;;
68858;SDS011;55864;49.238;8.092;2024-01-27T03:54:11;8.83;;;1.70;;
68858;SDS011;55864;49.238;8.092;2024-01-27T03:56:11;9.13;;;1.80;;
68858;SDS011;55864;49.238;8.092;2024-01-27T03:58:12;8.77;;;1.57;;
68858;SDS011;55864;49.238;8.092;2024-01-27T04:00:13;9.07;;;1.60;;
68858;SDS011;55864;49.238;8.092;2024-01-27T04:02:15;9.13;;;1.97;;
68858;SDS011;55864;49.238;8.092;2024-01-27T04:04:15;6.37;;;1.73;;
68858;SDS011;55864;49.238;8.092;2024-01-27T04:06:16;8.27;;;2.00;;
68858;SDS011;55864;49.238;8.092;2024-01-27T04:08:16;7.60;;;1.77;;
68858;SDS011;55864;49.238;8.092;2024-01-27T04:10:17;7.10;;;1.83;;
68858;SDS011;55864;49.238;8.092;2024-01-27T04:12:18;8.33;;;1.73;;
68858;SDS011;55864;49.238;8.092;2024-01-27T04:14:19;8.50;;;1.70;;
68858;SDS011;55864;49.238;8.092;2024-01-27T04:16:19;7.50;;;1.53;;
68858;SDS011;55864;49.238;8.092;2024-01-27T04:18:21;8.63;;;1.80;;
68858;SDS011;55864;49.238;8.092;2024-01-27T04:20:22;7.77;;;1.87;;
68858;SDS011;55864;49.238;8.092;2024-01-27T04:22:22;7.20;;;1.90;;
68858;SDS011;55864;49.238;8.092;2024-01-27T04:24:23;7.50;;;1.67;;
68858;SDS011;55864;49.238;8.092;2024-01-27T04:26:23;11.33;;;1.87;;
68858;SDS011;55864;49.238;8.092;2024-01-27T04:28:24;6.20;;;1.70;;
68858;SDS011;55864;49.238;8.092;2024-01-27T04:30:24;7.73;;;1.50;;
68858;SDS011;55864;49.238;8.092;2024-01-27T04:32:25;10.90;;;1.93;;
68858;SDS011;55864;49.238;8.092;2024-01-27T04:34:26;10.83;;;1.97;;
68858;SDS011;55864;49.238;8.092;2024-01-27T04:36:27;7.17;;;1.63;;
68858;SDS011;55864;49.238;8.092;2024-01-27T04:38:28;7.97;;;2.20;;
68858;SDS011;55864;49.238;8.092;2024-01-27T04:40:28;7.33;;;1.60;;
68858;SDS011;55864;49.238;8.092;2024-01-27T04:42:29;9.57;;;1.67;;
68858;SDS011;55864;49.238;8.092;2024-01-27T04:44:29;5.67;;;1.70;;
68858;SDS011;55864;49.238;8.092;2024-01-27T04:46:30;12.07;;;2.67;;
68858;SDS011;55864;49.238;8.092;2024-01-27T04:48:30;6.37;;;1.70;;
68858;SDS011;55864;49.238;8.092;2024-01-27T04:50:32;6.50;;;1.50;;
68858;SDS011;55864;49.238;8.092;2024-01-27T04:52:33;8.60;;;1.60;;
68858;SDS011;55864;49.238;8.092;2024-01-27T04:54:33;11.20;;;1.70;;
68858;SDS011;55864;49.238;8.092;2024-01-27T04:56:34;6.03;;;1.80;;
68858;SDS011;55864;49.238;8.092;2024-01-27T04:58:34;9.03;;;1.60;;
68858;SDS011;55864;49.238;8.092;2024-01-27T05:00:35;5.13;;;1.40;;
68858;SDS011;55864;49.238;8.092;2024-01-27T05:02:35;8.73;;;1.87;;
68858;SDS011;55864;49.238;8.092;2024-01-27T05:04:36;6.60;;;1.50;;
68858;SDS011;55864;49.238;8.092;2024-01-27T05:06:38;6.10;;;1.43;;
68858;SDS011;55864;49.238;8.092;2024-01-27T05:08:43;8.10;;;1.90;;
68858;SDS011;55864;49.238;8.092;2024-01-27T05:10:44;5.77;;;1.40;;
68858;SDS011;55864;49.238;8.092;2024-01-27T05:12:44;10.93;;;1.90;;
68858;SDS011;55864;49.238;8.092;2024-01-27T05:14:45;4.90;;;1.23;;
68858;SDS011;55864;49.238;8.092;2024-01-27T05:16:46;4.17;;;1.30;;
68858;SDS011;55864;49.238;8.092;2024-01-27T05:18:46;10.80;;;1.90;;
68858;SDS011;55864;49.238;8.092;2024-01-27T05:20:47;8.10;;;2.10;;
68858;SDS011;55864;49.238;8.092;2024-01-27T05:22:49;5.77;;;1.43;;
68858;SDS011;55864;49.238;8.092;2024-01-27T05:24:49;9.40;;;1.70;;
68858;SDS011;55864;49.238;8.092;2024-01-27T05:26:50;11.10;;;2.50;;
68858;SDS011;55864;49.238;8.092;2024-01-27T05:28:50;8.43;;;2.07;;
68858;SDS011;55864;49.238;8.092;2024-01-27T05:30:51;8.20;;;1.70;;
68858;SDS011;55864;49.238;8.092;2024-01-27T05:32:51;9.93;;;1.90;;
68858;SDS011;55864;49.238;8.092;2024-01-27T05:34:52;7.90;;;1.80;;
68858;SDS011;55864;49.238;8.092;2024-01-27T05:36:52;8.97;;;1.93;;
68858;SDS011;55864;49.238;8.092;2024-01-27T05:38:54;10.43;;;1.90;;
68858;SDS011;55864;49.238;8.092;2024-01-27T05:40:55;10.70;;;1.63;;
68858;SDS011;55864;49.238;8.092;2024-01-27T05:42:55;10.47;;;1.80;;
68858;SDS011;55864;49.238;8.092;2024-01-27T05:44:56;9.80;;;2.20;;
68858;SDS011;55864;49.238;8.092;2024-01-27T05:46:56;13.60;;;2.40;;
68858;SDS011;55864;49.238;8.092;2024-01-27T05:48:57;11.70;;;2.00;;
68858;SDS011;55864;49.238;8.092;2024-01-27T05:50:58;10.30;;;1.60;;
68858;SDS011;55864;49.238;8.092;2024-01-27T05:52:59;10.77;;;2.10;;
68858;SDS011;55864;49.238;8.092;2024-01-27T05:55:01;5.83;;;1.77;;
68858;SDS011;55864;49.238;8.092;2024-01-27T05:57:02;8.80;;;1.70;;
68858;SDS011;55864;49.238;8.092;2024-01-27T05:59:03;10.37;;;2.10;;
68858;SDS011;55864;49.238;8.092;2024-01-27T06:01:03;10.10;;;2.57;;
68858;SDS011;55864;49.238;8.092;2024-01-27T06:03:04;6.70;;;1.60;;
68858;SDS011;55864;49.238;8.092;2024-01-27T06:05:05;6.20;;;2.10;;
68858;SDS011;55864;49.238;8.092;2024-01-27T06:07:05;7.47;;;1.50;;
68858;SDS011;55864;49.238;8.092;2024-01-27T06:09:06;11.93;;;1.80;;
68858;SDS011;55864;49.238;8.092;2024-01-27T06:11:08;10.20;;;1.57;;
68858;SDS011;55864;49.238;8.092;2024-01-27T06:13:09;11.07;;;1.70;;
68858;SDS011;55864;49.238;8.092;2024-01-27T06:15:09;6.00;;;1.70;;
68858;SDS011;55864;49.238;8.092;2024-01-27T06:17:10;11.93;;;1.60;;
68858;SDS011;55864;49.238;8.092;2024-01-27T06:19:10;7.17;;;1.70;;
68858;SDS011;55864;49.238;8.092;2024-01-27T06:21:11;10.90;;;1.37;;
68858;SDS011;55864;49.238;8.092;2024-01-27T06:23:11;11.23;;;1.60;;
68858;SDS011;55864;49.238;8.092;2024-01-27T06:25:12;8.33;;;1.57;;
68858;SDS011;55864;49.238;8.092;2024-01-27T06:27:14;11.90;;;1.70;;
68858;SDS011;55864;49.238;8.092;2024-01-27T06:29:14;5.63;;;1.50;;
68858;SDS011;55864;49.238;8.092;2024-01-27T06:31:15;10.97;;;1.77;;
68858;SDS011;55864;49.238;8.092;2024-01-27T06:33:16;7.57;;;1.70;;
68858;SDS011;55864;49.238;8.092;2024-01-27T06:35:16;8.50;;;2.07;;
68858;SDS011;55864;49.238;8.092;2024-01-27T06:37:17;10.00;;;2.13;;
68858;SDS011;55864;49.238;8.092;2024-01-27T06:39:17;9.03;;;2.60;;
68858;SDS011;55864;49.238;8.092;2024-01-27T06:41:18;13.90;;;3.00;;
68858;SDS011;55864;49.238;8.092;2024-01-27T06:43:20;18.83;;;4.80;;
68858;SDS011;55864;49.238;8.092;2024-01-27T06:45:20;23.33;;;7.37;;
68858;SDS011;55864;49.238;8.092;2024-01-27T06:47:21;25.80;;;8.40;;
68858;SDS011;55864;49.238;8.092;2024-01-27T06:49:21;19.53;;;6.87;;
68858;SDS011;55864;49.238;8.092;2024-01-27T06:51:22;16.97;;;5.53;;
68858;SDS011;55864;49.238;8.092;2024-01-27T06:53:22;15.07;;;3.20;;
68858;SDS011;55864;49.238;8.092;2024-01-27T06:55:23;10.23;;;2.80;;
68858;SDS011;55864;49.238;8.092;2024-01-27T06:57:24;10.63;;;3.10;;
68858;SDS011;55864;49.238;8.092;2024-01-27T06:59:25;17.77;;;3.00;;
68858;SDS011;55864;49.238;8.092;2024-01-27T07:01:26;8.83;;;1.80;;
68858;SDS011;55864;49.238;8.092;2024-01-27T07:03:27;9.80;;;1.90;;
68858;SDS011;55864;49.238;8.092;2024-01-27T07:05:27;9.10;;;1.90;;
68858;SDS011;55864;49.238;8.092;2024-01-27T07:07:28;5.73;;;1.40;;
68858;SDS011;55864;49.238;8.092;2024-01-27T07:09:28;7.73;;;1.77;;
68858;SDS011;55864;49.238;8.092;2024-01-27T07:11:29;7.73;;;1.53;;
68858;SDS011;55864;49.238;8.092;2024-01-27T07:13:29;11.47;;;2.20;;
68858;SDS011;55864;49.238;8.092;2024-01-27T07:15:31;10.40;;;2.70;;
68858;SDS011;55864;49.238;8.092;2024-01-27T07:17:32;18.63;;;5.03;;
68858;SDS011;55864;49.238;8.092;2024-01-27T07:19:32;8.53;;;2.87;;
68858;SDS011;55864;49.238;8.092;2024-01-27T07:21:33;10.73;;;2.67;;
68858;SDS011;55864;49.238;8.092;2024-01-27T07:23:33;8.03;;;1.83;;
68858;SDS011;55864;49.238;8.092;2024-01-27T07:25:34;10.47;;;2.10;;
68858;SDS011;55864;49.238;8.092;2024-01-27T07:27:34;7.17;;;1.70;;
68858;SDS011;55864;49.238;8.092;2024-01-27T07:29:35;8.47;;;2.00;;
68858;SDS011;55864;49.238;8.092;2024-01-27T07:31:37;25.20;;;7.53;;
68858;SDS011;55864;49.238;8.092;2024-01-27T07:33:37;21.40;;;7.03;;
68858;SDS011;55864;49.238;8.092;2024-01-27T07:35:38;17.93;;;5.33;;
68858;SDS011;55864;49.238;8.092;2024-01-27T07:37:38;24.80;;;6.23;;
68858;SDS011;55864;49.238;8.092;2024-01-27T07:39:39;27.80;;;7.00;;
68858;SDS011;55864;49.238;8.092;2024-01-27T07:41:39;30.40;;;8.30;;
68858;SDS011;55864;49.238;8.092;2024-01-27T07:43:40;23.57;;;6.93;;
68858;SDS011;55864;49.238;8.092;2024-01-27T07:45:40;16.60;;;4.30;;
68858;SDS011;55864;49.238;8.092;2024-01-27T07:47:42;13.67;;;3.70;;
68858;SDS011;55864;49.238;8.092;2024-01-27T07:49:43;15.23;;;4.30;;
68858;SDS011;55864;49.238;8.092;2024-01-27T07:51:43;18.47;;;5.53;;
68858;SDS011;55864;49.238;8.092;2024-01-27T07:53:44;17.23;;;4.60;;
68858;SDS011;55864;49.238;8.092;2024-01-27T07:55:45;16.30;;;3.60;;
68858;SDS011;55864;49.238;8.092;2024-01-27T07:57:45;7.30;;;2.00;;
68858;SDS011;55864;49.238;8.092;2024-01-27T07:59:46;7.30;;;2.10;;
68858;SDS011;55864;49.238;8.092;2024-01-27T08:01:46;10.10;;;2.20;;
68858;SDS011;55864;49.238;8.092;2024-01-27T08:03:48;10.73;;;1.90;;
68858;SDS011;55864;49.238;8.092;2024-01-27T08:05:48;8.20;;;1.80;;
68858;SDS011;55864;49.238;8.092;2024-01-27T08:07:49;9.97;;;1.80;;
68858;SDS011;55864;49.238;8.092;2024-01-27T08:09:49;9.13;;;1.60;;
68858;SDS011;55864;49.238;8.092;2024-01-27T08:11:50;9.53;;;1.93;;
68858;SDS011;55864;49.238;8.092;2024-01-27T08:13:50;12.37;;;2.87;;
68858;SDS011;55864;49.238;8.092;2024-01-27T08:15:51;18.97;;;3.53;;
68858;SDS011;55864;49.238;8.092;2024-01-27T08:17:52;11.93;;;2.83;;
68858;SDS011;55864;49.238;8.092;2024-01-27T08:19:53;12.80;;;2.67;;
68858;SDS011;55864;49.238;8.092;2024-01-27T08:21:54;10.90;;;4.00;;
68858;SDS011;55864;49.238;8.092;2024-01-27T08:23:54;23.60;;;8.30;;
68858;SDS011;55864;49.238;8.092;2024-01-27T08:25:55;25.43;;;10.93;;
68858;SDS011;55864;49.238;8.092;2024-01-27T08:27:55;26.83;;;9.43;;
68858;SDS011;55864;49.238;8.092;2024-01-27T08:29:56;24.50;;;9.37;;
68858;SDS011;55864;49.238;8.092;2024-01-27T08:31:56;29.30;;;9.90;;
68858;SDS011;55864;49.238;8.092;2024-01-27T08:33:57;27.00;;;10.73;;
68858;SDS011;55864;49.238;8.092;2024-01-27T08:35:59;25.40;;;9.40;;
68858;SDS011;55864;49.238;8.092;2024-01-27T08:37:59;20.73;;;7.50;;
68858;SDS011;55864;49.238;8.092;2024-01-27T08:40:00;23.60;;;7.47;;
68858;SDS011;55864;49.238;8.092;2024-01-27T08:42:01;26.20;;;8.23;;
68858;SDS011;55864;49.238;8.092;2024-01-27T08:44:01;25.50;;;6.93;;
68858;SDS011;55864;49.238;8.092;2024-01-27T08:46:02;22.23;;;4.73;;
68858;SDS011;55864;49.238;8.092;2024-01-27T08:48:02;14.87;;;4.27;;
68858;SDS011;55864;49.238;8.092;2024-01-27T08:50:03;14.73;;;4.07;;
68858;SDS011;55864;49.238;8.092;2024-01-27T08:52:06;16.03;;;3.53;;
68858;SDS011;55864;49.238;8.092;2024-01-27T08:54:07;15.50;;;3.40;;
68858;SDS011;55864;49.238;8.092;2024-01-27T08:56:07;9.90;;;3.40;;
68858;SDS011;55864;49.238;8.092;2024-01-27T08:58:08;12.23;;;3.80;;
68858;SDS011;55864;49.238;8.092;2024-01-27T09:00:09;13.57;;;4.23;;
68858;SDS011;55864;49.238;8.092;2024-01-27T09:02:10;13.20;;;3.77;;
68858;SDS011;55864;49.238;8.092;2024-01-27T09:04:10;13.20;;;4.27;;
68858;SDS011;55864;49.238;8.092;2024-01-27T09:06:11;15.07;;;4.23;;
68858;SDS011;55864;49.238;8.092;2024-01-27T09:08:13;14.13;;;3.40;;
68858;SDS011;55864;49.238;8.092;2024-01-27T09:10:13;16.53;;;4.60;;
68858;SDS011;55864;49.238;8.092;2024-01-27T09:12:14;15.97;;;3.70;;
68858;SDS011;55864;49.238;8.092;2024-01-27T09:14:14;13.33;;;3.53;;
68858;SDS011;55864;49.238;8.092;2024-01-27T09:16:15;10.80;;;3.03;;
68858;SDS011;55864;49.238;8.092;2024-01-27T09:18:15;18.07;;;4.80;;
68858;SDS011;55864;49.238;8.092;2024-01-27T09:20:16;16.43;;;4.27;;
68858;SDS011;55864;49.238;8.092;2024-01-27T09:22:16;12.23;;;2.53;;
68858;SDS011;55864;49.238;8.092;2024-01-27T09:24:18;10.50;;;2.53;;
68858;SDS011;55864;49.238;8.092;2024-01-27T09:26:19;8.80;;;2.50;;
68858;SDS011;55864;49.238;8.092;2024-01-27T09:28:19;8.30;;;2.50;;
68858;SDS011;55864;49.238;8.092;2024-01-27T09:30:20;10.20;;;2.70;;
68858;SDS011;55864;49.238;8.092;2024-01-27T09:32:20;13.33;;;2.30;;
68858;SDS011;55864;49.238;8.092;2024-01-27T09:34:21;11.00;;;2.37;;
68858;SDS011;55864;49.238;8.092;2024-01-27T09:36:21;9.00;;;2.33;;
68858;SDS011;55864;49.238;8.092;2024-01-27T09:38:22;10.50;;;2.90;;
68858;SDS011;55864;49.238;8.092;2024-01-27T09:40:24;10.90;;;3.37;;
68858;SDS011;55864;49.238;8.092;2024-01-27T09:42:25;10.73;;;3.10;;
68858;SDS011;55864;49.238;8.092;2024-01-27T09:44:25;12.60;;;3.00;;
68858;SDS011;55864;49.238;8.092;2024-01-27T09:46:26;11.70;;;3.83;;
68858;SDS011;55864;49.238;8.092;2024-01-27T09:48:27;12.50;;;3.87;;
68858;SDS011;55864;49.238;8.092;2024-01-27T09:50:29;11.83;;;3.20;;
68858;SDS011;55864;49.238;8.092;2024-01-27T09:52:30;14.60;;;4.23;;
68858;SDS011;55864;49.238;8.092;2024-01-27T09:54:30;15.17;;;4.00;;
68858;SDS011;55864;49.238;8.092;2024-01-27T09:56:32;16.90;;;5.07;;
68858;SDS011;55864;49.238;8.092;2024-01-27T09:58:34;15.10;;;2.83;;
68858;SDS011;55864;49.238;8.092;2024-01-27T10:00:35;13.37;;;3.30;;
68858;SDS011;55864;49.238;8.092;2024-01-27T10:02:35;11.93;;;3.20;;
68858;SDS011;55864;49.238;8.092;2024-01-27T10:04:37;12.57;;;2.63;;
68858;SDS011;55864;49.238;8.092;2024-01-27T10:06:39;10.17;;;2.20;;
68858;SDS011;55864;49.238;8.092;2024-01-27T10:08:40;13.43;;;2.90;;
68858;SDS011;55864;49.238;8.092;2024-01-27T10:10:43;10.90;;;2.70;;
68858;SDS011;55864;49.238;8.092;2024-01-27T10:12:45;11.60;;;2.23;;
68858;SDS011;55864;49.238;8.092;2024-01-27T10:14:48;9.47;;;2.50;;
68858;SDS011;55864;49.238;8.092;2024-01-27T10:16:49;11.57;;;2.53;;
68858;SDS011;55864;49.238;8.092;2024-01-27T10:18:58;11.77;;;2.40;;
68858;SDS011;55864;49.238;8.092;2024-01-27T10:21:00;11.47;;;2.53;;
68858;SDS011;55864;49.238;8.092;2024-01-27T10:23:12;10.67;;;2.60;;
68858;SDS011;55864;49.238;8.092;2024-01-27T10:25:13;11.17;;;2.23;;
68858;SDS011;55864;49.238;8.092;2024-01-27T10:27:13;10.47;;;2.27;;
68858;SDS011;55864;49.238;8.092;2024-01-27T10:29:15;10.93;;;2.10;;
68858;SDS011;55864;49.238;8.092;2024-01-27T10:31:16;8.47;;;2.00;;
68858;SDS011;55864;49.238;8.092;2024-01-27T10:33:16;10.53;;;2.50;;
68858;SDS011;55864;49.238;8.092;2024-01-27T10:35:17;12.07;;;2.80;;
68858;SDS011;55864;49.238;8.092;2024-01-27T10:37:23;11.97;;;2.10;;
68858;SDS011;55864;49.238;8.092;2024-01-27T10:39:24;10.63;;;2.60;;
68858;SDS011;55864;49.238;8.092;2024-01-27T10:41:24;10.63;;;2.40;;
68858;SDS011;55864;49.238;8.092;2024-01-27T10:43:25;10.87;;;2.73;;
68858;SDS011;55864;49.238;8.092;2024-01-27T10:45:27;7.10;;;2.00;;
68858;SDS011;55864;49.238;8.092;2024-01-27T10:47:33;21.37;;;5.97;;
68858;SDS011;55864;49.238;8.092;2024-01-27T10:49:34;13.00;;;3.40;;
68858;SDS011;55864;49.238;8.092;2024-01-27T10:53:42;14.03;;;3.00;;
68858;SDS011;55864;49.238;8.092;2024-01-27T10:55:48;6.53;;;1.70;;
68858;SDS011;55864;49.238;8.092;2024-01-27T10:57:53;12.87;;;2.43;;
68858;SDS011;55864;49.238;8.092;2024-01-27T10:59:56;8.80;;;2.28;;
68858;SDS011;55864;49.238;8.092;2024-01-27T11:01:58;14.80;;;2.00;;
68858;SDS011;55864;49.238;8.092;2024-01-27T11:04:00;13.73;;;2.50;;
68858;SDS011;55864;49.238;8.092;2024-01-27T11:06:02;9.23;;;1.70;;
68858;SDS011;55864;49.238;8.092;2024-01-27T11:08:04;13.13;;;2.57;;
68858;SDS011;55864;49.238;8.092;2024-01-27T11:10:08;11.07;;;2.10;;
68858;SDS011;55864;49.238;8.092;2024-01-27T11:12:09;12.17;;;2.20;;
68858;SDS011;55864;49.238;8.092;2024-01-27T11:14:10;9.23;;;2.10;;
68858;SDS011;55864;49.238;8.092;2024-01-27T11:16:14;11.77;;;2.00;;
68858;SDS011;55864;49.238;8.092;2024-01-27T11:18:17;12.57;;;2.33;;
68858;SDS011;55864;49.238;8.092;2024-01-27T11:20:18;7.87;;;2.07;;
68858;SDS011;55864;49.238;8.092;2024-01-27T11:22:25;8.37;;;1.97;;
68858;SDS011;55864;49.238;8.092;2024-01-27T11:24:26;6.30;;;1.70;;
68858;SDS011;55864;49.238;8.092;2024-01-27T11:26:27;8.40;;;1.70;;
68858;SDS011;55864;49.238;8.092;2024-01-27T11:28:27;11.63;;;2.30;;
68858;SDS011;55864;49.238;8.092;2024-01-27T11:30:28;8.13;;;2.00;;
68858;SDS011;55864;49.238;8.092;2024-01-27T11:32:30;10.43;;;2.37;;
68858;SDS011;55864;49.238;8.092;2024-01-27T11:34:41;12.13;;;2.27;;
68858;SDS011;55864;49.238;8.092;2024-01-27T11:36:42;8.43;;;2.70;;
68858;SDS011;55864;49.238;8.092;2024-01-27T11:38:43;11.60;;;2.63;;
68858;SDS011;55864;49.238;8.092;2024-01-27T11:40:44;9.03;;;2.53;;
68858;SDS011;55864;49.238;8.092;2024-01-27T11:42:53;11.33;;;2.30;;
68858;SDS011;55864;49.238;8.092;2024-01-27T11:44:54;16.00;;;2.67;;
68858;SDS011;55864;49.238;8.092;2024-01-27T11:46:54;9.97;;;1.97;;
68858;SDS011;55864;49.238;8.092;2024-01-27T11:48:55;9.07;;;2.03;;
68858;SDS011;55864;49.238;8.092;2024-01-27T11:51:06;8.37;;;1.93;;
68858;SDS011;55864;49.238;8.092;2024-01-27T11:53:08;11.63;;;1.90;;
68858;SDS011;55864;49.238;8.092;2024-01-27T11:55:09;7.77;;;2.07;;
68858;SDS011;55864;49.238;8.092;2024-01-27T11:57:09;6.23;;;1.80;;
68858;SDS011;55864;49.238;8.092;2024-01-27T11:59:10;10.53;;;2.10;;
68858;SDS011;55864;49.238;8.092;2024-01-27T12:01:10;12.90;;;2.33;;
68858;SDS011;55864;49.238;8.092;2024-01-27T12:03:11;9.13;;;2.50;;
68858;SDS011;55864;49.238;8.092;2024-01-27T12:05:12;8.67;;;2.00;;
68858;SDS011;55864;49.238;8.092;2024-01-27T12:07:13;10.10;;;2.17;;